Time;durP1;ratioP1;P1;durP2;ratioP2;P2;SDS_P1;SDS_P2;PMS_P1;PMS_P2;Temp;Humidity;BMP_temperature;BMP_pressure;BME280_temperature;BME280_humidity;BME280_pressure;Samples;Min_cycle;Max_cycle;Signal;HPM_P1;HPM_P2
2022/12/25 00:01:49;;;;;;;36.17;17.87;;;;;;;;;;5121467;28;20215;-67
2022/12/25 00:04:18;;;;;;;32.23;17.73;;;;;;;;;;5121581;28;20283;-67
2022/12/25 00:06:46;;;;;;;38.33;18.87;;;;;;;;;;5121482;28;20215;-67
2022/12/25 00:09:14;;;;;;;36.17;19.17;;;;;;;;;;5121565;28;20200;-67
2022/12/25 00:11:42;;;;;;;35.87;20.00;;;;;;;;;;5121646;27;20201;-67
2022/12/25 00:14:10;;;;;;;34.87;18.57;;;;;;;;;;5121120;28;20271;-67
2022/12/25 00:16:38;;;;;;;40.17;21.10;;;;;;;;;;5121151;28;20566;-67
2022/12/25 00:19:06;;;;;;;38.17;19.37;;;;;;;;;;5120999;28;20642;-67
2022/12/25 00:21:35;;;;;;;39.00;19.50;;;;;;;;;;5121087;28;20232;-67
2022/12/25 00:24:04;;;;;;;35.90;19.57;;;;;;;;;;5121226;28;20220;-67
2022/12/25 00:26:32;;;;;;;33.27;18.80;;;;;;;;;;5121248;27;20283;-67
2022/12/25 00:29:00;;;;;;;36.80;19.90;;;;;;;;;;5120807;28;20204;-67
2022/12/25 00:31:28;;;;;;;34.43;19.83;;;;;;;;;;5121123;28;20215;-67
2022/12/25 00:33:56;;;;;;;36.80;19.30;;;;;;;;;;5120958;28;20315;-67
2022/12/25 00:36:24;;;;;;;42.40;21.37;;;;;;;;;;5120713;28;20207;-67
2022/12/25 00:38:53;;;;;;;41.00;19.77;;;;;;;;;;5121114;28;20293;-67
2022/12/25 00:42:17;;;;;;;36.70;19.23;;;;;;;;;;5120707;28;20663;-67
2022/12/25 00:44:12;;;;;;;40.43;20.63;;;;;;;;;;5116326;28;20278;-67
2022/12/25 00:46:41;;;;;;;36.60;19.10;;;;;;;;;;5120627;28;20211;-67
2022/12/25 00:49:09;;;;;;;41.17;20.63;;;;;;;;;;5120511;28;20569;-67
2022/12/25 00:51:37;;;;;;;37.40;19.93;;;;;;;;;;5120581;27;20204;-67
2022/12/25 00:54:07;;;;;;;34.57;19.27;;;;;;;;;;5120285;28;20610;-67
2022/12/25 00:56:35;;;;;;;35.37;18.67;;;;;;;;;;5120699;28;20212;-67
2022/12/25 00:59:03;;;;;;;37.10;20.00;;;;;;;;;;5120658;28;20219;-67
2022/12/25 01:01:31;;;;;;;35.20;18.30;;;;;;;;;;5120329;28;20733;-67
2022/12/25 01:04:00;;;;;;;33.60;18.50;;;;;;;;;;5120457;28;20227;-67
2022/12/25 01:06:28;;;;;;;32.67;18.90;;;;;;;;;;5120252;28;20208;-67
2022/12/25 01:11:43;;;;;;;30.47;16.83;;;;;;;;;;5120446;28;20208;-67
2022/12/25 01:14:11;;;;;;;31.10;17.20;;;;;;;;;;5120198;28;20233;-67
2022/12/25 01:16:39;;;;;;;35.47;17.47;;;;;;;;;;5120194;28;20215;-67
2022/12/25 01:19:07;;;;;;;37.90;17.40;;;;;;;;;;5119752;28;20247;-67
2022/12/25 01:21:38;;;;;;;29.60;16.63;;;;;;;;;;5119726;28;20211;-67
2022/12/25 01:24:06;;;;;;;33.67;17.47;;;;;;;;;;5120044;28;20228;-67
2022/12/25 01:26:34;;;;;;;31.30;16.27;;;;;;;;;;5119854;28;20566;-67
2022/12/25 01:29:04;;;;;;;33.17;16.80;;;;;;;;;;5119864;28;20567;-67
2022/12/25 01:31:32;;;;;;;35.67;17.63;;;;;;;;;;5119998;28;20232;-67
2022/12/25 01:34:00;;;;;;;33.87;16.00;;;;;;;;;;5119814;28;20288;-67
2022/12/25 01:36:28;;;;;;;34.47;17.20;;;;;;;;;;5119416;28;20690;-67
2022/12/25 01:38:56;;;;;;;34.20;17.40;;;;;;;;;;5119905;28;20236;-67
2022/12/25 01:41:25;;;;;;;33.37;16.93;;;;;;;;;;5118903;28;20208;-67
2022/12/25 01:43:58;;;;;;;30.03;16.53;;;;;;;;;;5119332;28;20231;-67
2022/12/25 01:46:27;;;;;;;35.00;16.80;;;;;;;;;;5119518;28;20205;-67
2022/12/25 01:48:57;;;;;;;32.93;17.10;;;;;;;;;;5119658;28;20288;-67
2022/12/25 01:51:26;;;;;;;27.30;16.13;;;;;;;;;;5119071;27;20210;-67
2022/12/25 01:53:55;;;;;;;31.07;15.60;;;;;;;;;;5119415;27;20263;-67
2022/12/25 01:56:23;;;;;;;28.60;16.30;;;;;;;;;;5119581;28;20243;-67
2022/12/25 01:58:51;;;;;;;30.37;15.40;;;;;;;;;;5119452;28;20215;-67
2022/12/25 02:01:19;;;;;;;26.40;14.40;;;;;;;;;;5119208;28;20302;-67
2022/12/25 02:03:49;;;;;;;20.43;13.03;;;;;;;;;;5119072;28;20580;-67
2022/12/25 02:06:17;;;;;;;18.87;12.97;;;;;;;;;;5119054;28;20209;-67
2022/12/25 02:08:45;;;;;;;20.40;12.13;;;;;;;;;;5119364;28;20212;-67
2022/12/25 02:11:55;;;;;;;21.87;13.00;;;;;;;;;;5119033;27;20232;-67
2022/12/25 02:14:01;;;;;;;16.63;11.53;;;;;;;;;;5118789;28;20229;-67
2022/12/25 02:16:33;;;;;;;21.83;11.67;;;;;;;;;;5118812;28;20225;-67
2022/12/25 02:19:29;;;;;;;14.23;10.63;;;;;;;;;;5118903;28;20644;-67
2022/12/25 02:22:02;;;;;;;16.77;10.20;;;;;;;;;;5118752;28;20291;-67
2022/12/25 02:24:39;;;;;;;16.87;10.17;;;;;;;;;;5118878;28;20220;-67
2022/12/25 02:27:09;;;;;;;18.93;10.57;;;;;;;;;;5118772;28;20208;-67
2022/12/25 02:29:42;;;;;;;17.77;10.80;;;;;;;;;;5118905;28;20220;-67
2022/12/25 02:32:14;;;;;;;15.97;10.57;;;;;;;;;;5118980;28;20211;-67
2022/12/25 02:34:45;;;;;;;14.37;9.73;;;;;;;;;;5118398;28;20590;-67
2022/12/25 02:37:16;;;;;;;16.17;10.30;;;;;;;;;;5118421;28;20608;-67
2022/12/25 02:39:57;;;;;;;17.77;10.77;;;;;;;;;;5118796;28;20205;-67
2022/12/25 03:08:02;;;;;;;16.90;11.83;;;;;;;;;;5118498;28;20204;-67
2022/12/25 03:13:18;;;;;;;18.33;11.30;;;;;;;;;;5118118;28;20729;-67
2022/12/25 03:18:34;;;;;;;15.87;10.23;;;;;;;;;;5118062;28;20260;-67
2022/12/25 03:26:56;;;;;;;15.13;10.23;;;;;;;;;;5081717;28;20208;-67
2022/12/25 03:32:17;;;;;;;15.97;9.30;;;;;;;;;;5118002;28;20200;-67
2022/12/25 04:36:17;;;;;;;15.17;9.57;;;;;;;;;;5120708;28;20259;-67
2022/12/25 04:38:45;;;;;;;12.87;9.13;;;;;;;;;;5120848;28;20209;-67
2022/12/25 04:41:14;;;;;;;11.10;8.43;;;;;;;;;;5121043;28;20212;-67
2022/12/25 04:43:42;;;;;;;13.93;8.97;;;;;;;;;;5120607;28;20256;-67
2022/12/25 04:46:10;;;;;;;14.10;8.77;;;;;;;;;;5120638;28;20346;-67
2022/12/25 04:48:38;;;;;;;13.00;9.23;;;;;;;;;;5120968;28;20205;-67
2022/12/25 04:51:10;;;;;;;14.30;9.97;;;;;;;;;;5120212;28;20232;-67
2022/12/25 04:53:38;;;;;;;12.73;9.37;;;;;;;;;;5120485;28;20229;-67
2022/12/25 04:56:06;;;;;;;13.63;10.30;;;;;;;;;;5120349;28;20730;-67
2022/12/25 04:58:36;;;;;;;12.93;9.27;;;;;;;;;;5120467;28;20204;-67
2022/12/25 05:01:04;;;;;;;13.57;9.13;;;;;;;;;;5120423;28;20694;-67
2022/12/25 05:03:33;;;;;;;14.90;9.17;;;;;;;;;;5120516;28;20225;-67
2022/12/25 05:06:01;;;;;;;11.63;9.17;;;;;;;;;;5120283;28;20204;-67
2022/12/25 05:08:30;;;;;;;11.60;8.30;;;;;;;;;;5120461;28;20296;-67
2022/12/25 05:10:58;;;;;;;10.50;8.20;;;;;;;;;;5120532;28;20288;-67
2022/12/25 05:13:26;;;;;;;14.23;9.20;;;;;;;;;;5120368;27;20267;-67
2022/12/25 05:15:55;;;;;;;11.57;8.40;;;;;;;;;;5119339;28;20227;-66
2022/12/25 05:18:23;;;;;;;11.40;8.37;;;;;;;;;;5120011;28;20289;-67
2022/12/25 05:20:53;;;;;;;11.53;7.33;;;;;;;;;;5119933;28;20227;-67
2022/12/25 05:23:21;;;;;;;8.93;7.07;;;;;;;;;;5120068;28;20221;-67
2022/12/25 05:25:48;;;;;;;9.20;6.93;;;;;;;;;;5120149;28;20205;-67
2022/12/25 05:28:16;;;;;;;7.80;6.90;;;;;;;;;;5120157;28;20201;-67
2022/12/25 05:30:44;;;;;;;10.20;7.07;;;;;;;;;;5120145;28;20287;-67
2022/12/25 05:33:14;;;;;;;8.30;6.77;;;;;;;;;;5119685;28;20776;-66
2022/12/25 05:35:42;;;;;;;9.13;6.60;;;;;;;;;;5119625;28;20229;-66
2022/12/25 05:38:10;;;;;;;9.67;6.43;;;;;;;;;;5119922;28;20236;-67
2022/12/25 05:40:40;;;;;;;6.47;5.80;;;;;;;;;;5119948;28;20209;-67
2022/12/25 05:43:08;;;;;;;9.40;6.97;;;;;;;;;;5119783;28;20225;-67
2022/12/25 05:45:36;;;;;;;7.83;6.33;;;;;;;;;;5119749;28;20284;-67
2022/12/25 05:48:05;;;;;;;11.77;6.63;;;;;;;;;;5119554;28;20258;-67
2022/12/25 05:50:36;;;;;;;8.67;6.60;;;;;;;;;;5119293;28;20250;-66
2022/12/25 05:53:04;;;;;;;8.47;6.03;;;;;;;;;;5119344;28;20323;-67
2022/12/25 05:55:35;;;;;;;8.10;6.33;;;;;;;;;;5119281;28;20281;-66
2022/12/25 05:58:03;;;;;;;7.43;6.07;;;;;;;;;;5119352;28;20212;-66
2022/12/25 06:00:32;;;;;;;8.07;6.30;;;;;;;;;;5119241;28;20205;-66
2022/12/25 06:03:00;;;;;;;7.07;6.07;;;;;;;;;;5119189;28;20256;-66
2022/12/25 06:05:28;;;;;;;8.00;5.90;;;;;;;;;;5119013;28;20216;-66
2022/12/25 06:07:57;;;;;;;6.87;5.87;;;;;;;;;;5119196;28;20569;-66
2022/12/25 06:10:25;;;;;;;8.80;6.67;;;;;;;;;;5119053;28;20220;-66
2022/12/25 06:12:54;;;;;;;7.53;6.23;;;;;;;;;;5118986;28;20300;-66
2022/12/25 06:15:22;;;;;;;6.83;6.13;;;;;;;;;;5118972;28;20197;-66
2022/12/25 06:17:50;;;;;;;9.03;6.37;;;;;;;;;;5119009;28;20219;-66
2022/12/25 06:20:18;;;;;;;6.77;5.93;;;;;;;;;;5118723;28;20204;-67
2022/12/25 06:22:46;;;;;;;8.27;6.67;;;;;;;;;;5118956;28;20229;-66
2022/12/25 06:25:16;;;;;;;8.20;6.43;;;;;;;;;;5118959;28;20209;-66
2022/12/25 06:27:44;;;;;;;9.87;6.47;;;;;;;;;;5118731;28;20243;-66
2022/12/25 06:33:33;;;;;;;9.07;6.77;;;;;;;;;;5117938;28;20208;-66
2022/12/25 06:36:04;;;;;;;8.30;6.80;;;;;;;;;;5118223;27;20235;-66
2022/12/25 06:38:32;;;;;;;9.23;6.07;;;;;;;;;;5118800;28;20215;-66
2022/12/25 06:41:04;;;;;;;8.77;7.10;;;;;;;;;;5118663;28;20239;-66
2022/12/25 06:43:32;;;;;;;8.50;6.63;;;;;;;;;;5118506;28;20256;-66
2022/12/25 06:46:02;;;;;;;7.17;6.47;;;;;;;;;;5118792;28;20207;-66
2022/12/25 06:48:31;;;;;;;8.70;6.80;;;;;;;;;;5118364;28;20249;-66
2022/12/25 06:50:59;;;;;;;8.33;6.63;;;;;;;;;;5118226;28;20717;-66
2022/12/25 06:53:28;;;;;;;8.37;6.37;;;;;;;;;;5118478;28;20256;-66
2022/12/25 06:56:08;;;;;;;7.30;6.10;;;;;;;;;;5118502;28;20233;-66
2022/12/25 06:58:36;;;;;;;8.13;6.70;;;;;;;;;;5118322;28;20635;-66
2022/12/25 07:01:13;;;;;;;8.30;6.37;;;;;;;;;;5118238;28;20205;-66
2022/12/25 07:03:43;;;;;;;8.90;6.40;;;;;;;;;;5118553;28;20239;-66
2022/12/25 07:06:11;;;;;;;7.90;6.73;;;;;;;;;;5117876;28;20235;-67
2022/12/25 07:08:39;;;;;;;9.00;6.73;;;;;;;;;;5118289;28;20265;-66
2022/12/25 07:11:09;;;;;;;8.10;6.33;;;;;;;;;;5118566;28;20204;-66
2022/12/25 07:13:37;;;;;;;8.97;6.53;;;;;;;;;;5118096;28;20251;-66
2022/12/25 07:16:06;;;;;;;8.67;6.73;;;;;;;;;;5118307;28;20220;-66
2022/12/25 07:18:35;;;;;;;8.97;7.10;;;;;;;;;;5118429;28;20240;-66
2022/12/25 07:21:06;;;;;;;9.80;6.50;;;;;;;;;;5117927;28;20204;-66
2022/12/25 07:23:34;;;;;;;8.13;7.10;;;;;;;;;;5117996;28;20225;-66
2022/12/25 07:26:02;;;;;;;7.80;6.43;;;;;;;;;;5118280;28;20205;-67
2022/12/25 07:28:32;;;;;;;9.20;6.60;;;;;;;;;;5118343;28;20218;-66
2022/12/25 07:31:01;;;;;;;7.47;6.67;;;;;;;;;;5118189;28;20254;-66
2022/12/25 07:33:29;;;;;;;10.33;6.57;;;;;;;;;;5118411;28;20260;-66
2022/12/25 07:35:57;;;;;;;8.73;7.20;;;;;;;;;;5115222;28;20212;-66
2022/12/25 07:38:25;;;;;;;10.27;7.17;;;;;;;;;;5116227;28;20208;-66
2022/12/25 07:40:53;;;;;;;14.43;9.43;;;;;;;;;;5121486;28;20205;-66
2022/12/25 07:43:21;;;;;;;11.20;6.97;;;;;;;;;;5121759;28;20227;-66
2022/12/25 07:45:55;;;;;;;9.67;6.77;;;;;;;;;;5121505;28;20574;-66
2022/12/25 07:48:23;;;;;;;11.03;7.60;;;;;;;;;;5121735;28;20571;-66
2022/12/25 07:50:55;;;;;;;12.97;7.70;;;;;;;;;;5121616;28;20204;-67
2022/12/25 07:53:23;;;;;;;9.40;6.80;;;;;;;;;;5121820;28;20311;-67
2022/12/25 07:55:56;;;;;;;13.20;7.80;;;;;;;;;;5121920;28;20205;-66
2022/12/25 07:58:24;;;;;;;10.50;7.30;;;;;;;;;;5121486;28;20258;-67
2022/12/25 08:00:52;;;;;;;10.23;7.13;;;;;;;;;;5121413;28;20205;-67
2022/12/25 08:03:22;;;;;;;11.30;7.20;;;;;;;;;;5121238;28;20695;-66
2022/12/25 08:05:50;;;;;;;11.27;7.20;;;;;;;;;;5121097;28;20226;-66
2022/12/25 08:08:18;;;;;;;8.70;6.77;;;;;;;;;;5119414;28;20633;-66
2022/12/25 08:10:46;;;;;;;10.63;7.20;;;;;;;;;;5119501;28;20671;-66
2022/12/25 08:13:14;;;;;;;8.83;6.83;;;;;;;;;;5119085;28;20285;-66
2022/12/25 08:15:42;;;;;;;11.23;7.73;;;;;;;;;;5119503;28;20211;-66
2022/12/25 08:18:10;;;;;;;8.97;6.63;;;;;;;;;;5119008;28;20241;-66
2022/12/25 08:20:39;;;;;;;10.53;6.97;;;;;;;;;;5119182;28;20211;-66
2022/12/25 08:23:07;;;;;;;9.87;7.20;;;;;;;;;;5120308;28;20252;-66
2022/12/25 08:25:36;;;;;;;8.60;6.33;;;;;;;;;;5121418;28;20215;-66
2022/12/25 08:28:04;;;;;;;10.87;7.37;;;;;;;;;;5121254;27;20252;-67
2022/12/25 08:30:32;;;;;;;9.30;6.93;;;;;;;;;;5120992;28;20302;-66
2022/12/25 08:33:00;;;;;;;9.07;7.00;;;;;;;;;;5121091;28;20220;-66
2022/12/25 08:35:28;;;;;;;9.17;6.23;;;;;;;;;;5120975;28;20215;-66
2022/12/25 08:37:58;;;;;;;9.10;6.50;;;;;;;;;;5120995;28;20225;-66
2022/12/25 08:40:26;;;;;;;8.63;6.47;;;;;;;;;;5121113;28;20228;-66
2022/12/25 08:42:55;;;;;;;8.57;6.63;;;;;;;;;;5120584;28;20225;-67
2022/12/25 08:45:24;;;;;;;9.47;6.43;;;;;;;;;;5121043;28;20208;-66
2022/12/25 08:47:59;;;;;;;10.40;6.70;;;;;;;;;;5120739;28;20204;-66
2022/12/25 08:50:27;;;;;;;8.97;6.63;;;;;;;;;;5120411;28;20258;-66
2022/12/25 08:52:55;;;;;;;11.40;6.50;;;;;;;;;;5120855;28;20225;-66
2022/12/25 08:55:25;;;;;;;6.43;4.83;;;;;;;;;;5120638;28;20240;-66
2022/12/25 08:57:53;;;;;;;6.83;5.03;;;;;;;;;;5120666;28;20268;-67
2022/12/25 09:00:21;;;;;;;9.87;5.10;;;;;;;;;;5120263;28;20687;-66
2022/12/25 09:02:49;;;;;;;6.90;4.70;;;;;;;;;;5120310;28;20253;-67
2022/12/25 09:05:17;;;;;;;7.27;4.77;;;;;;;;;;5119923;28;20633;-67
2022/12/25 09:07:45;;;;;;;8.47;5.10;;;;;;;;;;5120364;28;20228;-66
2022/12/25 09:10:13;;;;;;;7.60;5.63;;;;;;;;;;5120185;28;20227;-66
2022/12/25 09:12:43;;;;;;;7.03;4.97;;;;;;;;;;5120099;27;20260;-66
2022/12/25 09:15:11;;;;;;;7.67;5.23;;;;;;;;;;5120339;28;20237;-66
2022/12/25 09:17:39;;;;;;;8.03;5.57;;;;;;;;;;5120058;28;20272;-66
2022/12/25 09:20:07;;;;;;;6.50;4.93;;;;;;;;;;5119811;28;20204;-66
2022/12/25 09:22:35;;;;;;;7.63;4.70;;;;;;;;;;5119752;28;20248;-66
2022/12/25 09:25:04;;;;;;;6.40;5.77;;;;;;;;;;5119882;28;20567;-67
2022/12/25 09:27:32;;;;;;;9.63;6.30;;;;;;;;;;5119956;28;20575;-66
2022/12/25 09:30:01;;;;;;;9.20;7.37;;;;;;;;;;5120077;28;20211;-66
2022/12/25 09:32:29;;;;;;;9.97;7.87;;;;;;;;;;5120059;28;20288;-66
2022/12/25 09:34:57;;;;;;;13.73;8.10;;;;;;;;;;5119645;27;20254;-66
2022/12/25 09:37:25;;;;;;;12.83;8.17;;;;;;;;;;5119309;28;20221;-66
2022/12/25 09:39:53;;;;;;;9.00;6.93;;;;;;;;;;5119887;28;20243;-66
2022/12/25 09:42:22;;;;;;;12.50;8.27;;;;;;;;;;5119612;28;20197;-66
2022/12/25 09:44:52;;;;;;;11.23;7.73;;;;;;;;;;5119575;28;20567;-66
2022/12/25 09:47:24;;;;;;;11.00;8.43;;;;;;;;;;5119623;28;20196;-66
2022/12/25 09:49:54;;;;;;;10.80;8.10;;;;;;;;;;5119347;28;20233;-66
2022/12/25 09:52:24;;;;;;;13.47;7.87;;;;;;;;;;5118974;28;20690;-66
2022/12/25 09:54:54;;;;;;;11.27;7.53;;;;;;;;;;5119433;28;20214;-66
2022/12/25 09:57:24;;;;;;;10.73;7.93;;;;;;;;;;5119484;27;20226;-66
2022/12/25 09:59:54;;;;;;;9.70;7.30;;;;;;;;;;5119561;27;20211;-66
2022/12/25 10:02:40;;;;;;;15.67;9.00;;;;;;;;;;5118897;28;20201;-66
2022/12/25 10:05:24;;;;;;;10.47;8.27;;;;;;;;;;5107848;28;20205;-66
2022/12/25 10:07:58;;;;;;;11.43;8.23;;;;;;;;;;5118565;28;20213;-66
2022/12/25 10:10:34;;;;;;;14.00;8.77;;;;;;;;;;5119086;28;20659;-66
2022/12/25 10:13:06;;;;;;;9.23;6.30;;;;;;;;;;5119220;27;20264;-66
2022/12/25 10:15:35;;;;;;;7.87;4.10;;;;;;;;;;5118953;28;20550;-66
2022/12/25 10:18:25;;;;;;;5.13;3.60;;;;;;;;;;5118682;28;20596;-66
2022/12/25 10:20:54;;;;;;;3.13;2.57;;;;;;;;;;5118828;28;20288;-66
2022/12/25 10:23:25;;;;;;;2.93;2.43;;;;;;;;;;5118624;28;20224;-66
2022/12/25 10:25:53;;;;;;;2.30;1.93;;;;;;;;;;5119113;28;20209;-66
2022/12/25 10:28:26;;;;;;;3.90;1.70;;;;;;;;;;5118648;28;20197;-67
2022/12/25 10:30:56;;;;;;;1.80;1.70;;;;;;;;;;5118646;28;20209;-66
2022/12/25 10:33:24;;;;;;;1.67;1.57;;;;;;;;;;5118852;28;20277;-66
2022/12/25 10:35:52;;;;;;;2.93;1.90;;;;;;;;;;5118085;28;20207;-67
2022/12/25 10:38:20;;;;;;;2.33;2.00;;;;;;;;;;5118790;28;20239;-66
2022/12/25 10:41:08;;;;;;;3.57;2.03;;;;;;;;;;5118481;28;20204;-66
2022/12/25 10:43:40;;;;;;;2.03;1.60;;;;;;;;;;5118400;28;20232;-66
2022/12/25 10:46:11;;;;;;;2.40;1.80;;;;;;;;;;5118509;28;20631;-67
2022/12/25 10:48:41;;;;;;;2.60;1.83;;;;;;;;;;5118415;28;20205;-66
2022/12/25 10:51:10;;;;;;;1.93;1.77;;;;;;;;;;5117954;28;20647;-67
2022/12/25 10:53:38;;;;;;;3.20;1.90;;;;;;;;;;5118602;28;20234;-67
2022/12/25 10:56:16;;;;;;;2.40;1.50;;;;;;;;;;5118570;28;20209;-67
2022/12/25 10:58:44;;;;;;;2.23;1.67;;;;;;;;;;5118359;28;20235;-66
2022/12/25 11:01:12;;;;;;;2.30;2.13;;;;;;;;;;5118524;28;20262;-66
2022/12/25 11:03:40;;;;;;;2.53;2.10;;;;;;;;;;5118340;28;20260;-67
2022/12/25 11:06:21;;;;;;;2.40;1.67;;;;;;;;;;5118043;28;20204;-66
2022/12/25 11:08:51;;;;;;;3.03;1.60;;;;;;;;;;5118246;28;20224;-65
2022/12/25 11:11:20;;;;;;;2.37;1.80;;;;;;;;;;5118204;28;20701;-67
2022/12/25 11:13:49;;;;;;;3.30;2.67;;;;;;;;;;5119064;28;20260;-65
2022/12/25 11:16:26;;;;;;;3.20;1.90;;;;;;;;;;5122641;28;20207;-65
2022/12/25 11:18:55;;;;;;;1.53;1.43;;;;;;;;;;5122160;28;20236;-66
2022/12/25 11:21:24;;;;;;;1.70;1.60;;;;;;;;;;5122194;28;20243;-66
2022/12/25 11:23:56;;;;;;;2.90;2.10;;;;;;;;;;5122460;28;20312;-65
2022/12/25 11:26:26;;;;;;;2.50;1.80;;;;;;;;;;5122489;27;20223;-66
2022/12/25 11:28:54;;;;;;;2.07;1.77;;;;;;;;;;5122201;28;20710;-66
2022/12/25 11:31:23;;;;;;;3.97;1.93;;;;;;;;;;5122436;28;20208;-66
2022/12/25 11:33:53;;;;;;;1.80;1.70;;;;;;;;;;5122087;28;20227;-66
2022/12/25 11:36:25;;;;;;;3.60;1.70;;;;;;;;;;5121699;28;20240;-66
2022/12/25 11:38:53;;;;;;;2.10;1.90;;;;;;;;;;5122056;28;20820;-66
2022/12/25 11:41:31;;;;;;;1.70;1.60;;;;;;;;;;5122159;28;20204;-65
2022/12/25 11:44:03;;;;;;;4.63;1.90;;;;;;;;;;5115732;28;20836;-66
2022/12/25 11:46:36;;;;;;;3.27;1.90;;;;;;;;;;5122016;28;20213;-67
2022/12/25 11:49:07;;;;;;;2.70;1.83;;;;;;;;;;5121930;28;20208;-65
2022/12/25 11:51:37;;;;;;;2.07;1.90;;;;;;;;;;5121633;28;20215;-66
2022/12/25 11:54:08;;;;;;;2.67;2.03;;;;;;;;;;5121603;28;20707;-66
2022/12/25 11:56:36;;;;;;;1.70;1.40;;;;;;;;;;5122074;28;20201;-66
2022/12/25 11:59:08;;;;;;;2.20;1.33;;;;;;;;;;5121468;28;20713;-66
2022/12/25 12:01:44;;;;;;;1.97;1.63;;;;;;;;;;5121953;28;20205;-66
2022/12/25 12:04:17;;;;;;;2.63;2.10;;;;;;;;;;5121627;28;20260;-65
2022/12/25 12:06:47;;;;;;;3.13;1.57;;;;;;;;;;5121353;28;20216;-65
2022/12/25 12:09:22;;;;;;;1.70;1.60;;;;;;;;;;5121390;28;20228;-66
2022/12/25 12:11:53;;;;;;;3.57;1.90;;;;;;;;;;5121353;28;20238;-65
2022/12/25 12:14:29;;;;;;;2.20;2.00;;;;;;;;;;5121534;28;20225;-65
2022/12/25 12:16:57;;;;;;;2.13;1.97;;;;;;;;;;5121134;28;20671;-66
2022/12/25 12:19:26;;;;;;;2.70;2.23;;;;;;;;;;5120933;28;20714;-66
2022/12/25 12:21:55;;;;;;;1.93;1.83;;;;;;;;;;5120887;28;20668;-65
2022/12/25 12:24:25;;;;;;;2.40;2.17;;;;;;;;;;5120447;28;20703;-65
2022/12/25 12:27:00;;;;;;;2.60;2.40;;;;;;;;;;5121253;28;20209;-65
2022/12/25 12:29:32;;;;;;;3.07;2.33;;;;;;;;;;5121190;28;20205;-65
2022/12/25 12:32:02;;;;;;;2.10;2.00;;;;;;;;;;5121316;28;20212;-65
2022/12/25 12:34:32;;;;;;;3.77;2.47;;;;;;;;;;5120703;28;20692;-65
2022/12/25 12:37:01;;;;;;;2.20;2.00;;;;;;;;;;5120767;28;20577;-66
2022/12/25 12:39:33;;;;;;;2.30;2.10;;;;;;;;;;5120975;28;20229;-66
2022/12/25 12:42:01;;;;;;;3.40;2.37;;;;;;;;;;5120974;28;20223;-66
2022/12/25 12:44:33;;;;;;;2.20;2.03;;;;;;;;;;5120588;28;20229;-66
2022/12/25 12:47:01;;;;;;;3.40;2.30;;;;;;;;;;5121039;28;20205;-66
2022/12/25 12:49:31;;;;;;;3.97;2.50;;;;;;;;;;5120474;28;20284;-64
2022/12/25 12:52:06;;;;;;;3.20;2.90;;;;;;;;;;5120305;28;20716;-65
2022/12/25 12:54:48;;;;;;;4.43;2.30;;;;;;;;;;5120738;28;20224;-65
2022/12/25 12:57:22;;;;;;;2.87;2.20;;;;;;;;;;5120447;28;20675;-67
2022/12/25 12:59:52;;;;;;;2.40;2.20;;;;;;;;;;5120651;28;20225;-65
2022/12/25 13:02:30;;;;;;;2.30;2.10;;;;;;;;;;5120298;28;20569;-66
2022/12/25 13:05:02;;;;;;;3.80;2.53;;;;;;;;;;5120544;28;20208;-66
2022/12/25 13:07:34;;;;;;;2.30;2.10;;;;;;;;;;5120310;28;20204;-65
2022/12/25 13:10:05;;;;;;;2.43;2.13;;;;;;;;;;5120248;28;20227;-66
2022/12/25 13:12:34;;;;;;;2.50;2.20;;;;;;;;;;5120461;28;20205;-66
2022/12/25 13:15:04;;;;;;;2.63;2.43;;;;;;;;;;5120402;28;20204;-65
2022/12/25 13:17:32;;;;;;;2.23;2.07;;;;;;;;;;5120095;28;20236;-65
2022/12/25 13:20:01;;;;;;;2.50;2.20;;;;;;;;;;5119390;28;20240;-65
2022/12/25 13:22:30;;;;;;;2.80;2.13;;;;;;;;;;5120078;28;20213;-66
2022/12/25 13:25:00;;;;;;;2.20;2.00;;;;;;;;;;5120202;28;20211;-66
2022/12/25 13:27:29;;;;;;;2.53;2.30;;;;;;;;;;5120263;27;20217;-66
2022/12/25 13:29:57;;;;;;;2.60;2.40;;;;;;;;;;5119884;28;20292;-66
2022/12/25 13:32:28;;;;;;;2.60;2.30;;;;;;;;;;5119777;28;20205;-67
2022/12/25 13:34:56;;;;;;;3.10;2.20;;;;;;;;;;5119930;28;20209;-66
2022/12/25 13:37:25;;;;;;;2.30;2.10;;;;;;;;;;5119191;28;20219;-66
2022/12/25 13:39:54;;;;;;;1.80;1.70;;;;;;;;;;5106312;28;20231;-67
2022/12/25 13:42:22;;;;;;;3.87;2.00;;;;;;;;;;5119701;28;20197;-65
2022/12/25 13:44:52;;;;;;;1.87;1.77;;;;;;;;;;5119650;28;20634;-66
2022/12/25 13:47:21;;;;;;;1.90;1.70;;;;;;;;;;5119774;28;20251;-65
2022/12/25 13:49:51;;;;;;;2.97;2.10;;;;;;;;;;5119682;28;20197;-67
2022/12/25 13:52:20;;;;;;;2.13;1.93;;;;;;;;;;5119240;28;20236;-67
2022/12/25 13:54:55;;;;;;;2.00;1.70;;;;;;;;;;5119418;28;20675;-67
2022/12/25 13:57:26;;;;;;;2.27;2.07;;;;;;;;;;5119528;28;20238;-67
2022/12/25 13:59:54;;;;;;;3.50;1.70;;;;;;;;;;5119574;28;20224;-67
2022/12/25 14:02:24;;;;;;;2.30;2.10;;;;;;;;;;5119381;28;20227;-67
2022/12/25 14:04:54;;;;;;;1.50;1.40;;;;;;;;;;5119507;28;20291;-67
2022/12/25 14:07:23;;;;;;;1.90;1.63;;;;;;;;;;5119301;28;20212;-66
2022/12/25 14:09:54;;;;;;;2.27;1.50;;;;;;;;;;5119077;28;20201;-66
2022/12/25 14:12:22;;;;;;;1.60;1.50;;;;;;;;;;5119040;28;20205;-66
2022/12/25 14:14:52;;;;;;;2.60;1.40;;;;;;;;;;5118998;28;20209;-66
2022/12/25 14:17:20;;;;;;;1.90;1.80;;;;;;;;;;5118842;28;20220;-66
2022/12/25 14:19:57;;;;;;;2.27;1.70;;;;;;;;;;5118551;28;20240;-66
2022/12/25 14:22:34;;;;;;;1.50;1.40;;;;;;;;;;5118783;28;20642;-66
2022/12/25 14:25:02;;;;;;;2.07;1.70;;;;;;;;;;5119040;28;20208;-66
2022/12/25 14:27:32;;;;;;;3.47;2.00;;;;;;;;;;5119142;28;20209;-66
2022/12/25 14:30:00;;;;;;;1.67;1.57;;;;;;;;;;5118710;28;20687;-66
2022/12/25 14:32:30;;;;;;;1.70;1.50;;;;;;;;;;5118636;28;20200;-66
2022/12/25 14:35:02;;;;;;;1.70;1.60;;;;;;;;;;5118252;28;20215;-66
2022/12/25 14:37:31;;;;;;;2.43;1.70;;;;;;;;;;5118791;28;20208;-66
2022/12/25 14:39:59;;;;;;;3.00;1.70;;;;;;;;;;5118807;28;20228;-66
2022/12/25 14:42:29;;;;;;;2.73;2.20;;;;;;;;;;5118307;28;20235;-66
2022/12/25 14:44:59;;;;;;;2.10;1.90;;;;;;;;;;5118737;28;20208;-66
2022/12/25 14:47:27;;;;;;;2.43;1.63;;;;;;;;;;5118267;28;20291;-66
2022/12/25 14:49:55;;;;;;;1.70;1.60;;;;;;;;;;5118136;28;20545;-67
2022/12/25 14:52:26;;;;;;;2.47;1.50;;;;;;;;;;5118245;28;20247;-66
2022/12/25 14:54:55;;;;;;;1.77;1.67;;;;;;;;;;5118362;28;20631;-66
2022/12/25 14:57:26;;;;;;;2.60;1.87;;;;;;;;;;5118331;28;20204;-66
2022/12/25 14:59:55;;;;;;;1.90;1.70;;;;;;;;;;5118244;28;20204;-66
2022/12/25 15:02:24;;;;;;;1.50;1.40;;;;;;;;;;5118434;28;20204;-66
2022/12/25 15:04:53;;;;;;;1.70;1.60;;;;;;;;;;5118089;28;20208;-66
2022/12/25 15:07:27;;;;;;;2.90;1.60;;;;;;;;;;5118480;28;20211;-65
2022/12/25 15:09:56;;;;;;;2.50;1.53;;;;;;;;;;5118353;28;20246;-66
2022/12/25 15:12:44;;;;;;;2.87;1.43;;;;;;;;;;5118381;28;20229;-65
2022/12/25 15:15:12;;;;;;;1.80;1.60;;;;;;;;;;5118039;28;20626;-66
2022/12/25 15:17:40;;;;;;;1.60;1.50;;;;;;;;;;5117910;28;20209;-67
2022/12/25 15:20:11;;;;;;;2.63;1.73;;;;;;;;;;5117568;28;20291;-67
2022/12/25 15:22:42;;;;;;;1.70;1.60;;;;;;;;;;5118208;28;20228;-67
2022/12/25 15:25:30;;;;;;;1.60;1.50;;;;;;;;;;5118283;28;20208;-66
2022/12/25 15:27:59;;;;;;;1.80;1.50;;;;;;;;;;5117949;28;20208;-66
2022/12/25 15:30:27;;;;;;;3.20;1.80;;;;;;;;;;5118018;28;20204;-66
2022/12/25 15:32:55;;;;;;;2.07;1.70;;;;;;;;;;5117861;28;20248;-66
2022/12/25 15:35:23;;;;;;;2.47;1.60;;;;;;;;;;5117609;28;20291;-66
2022/12/25 15:37:53;;;;;;;2.40;1.63;;;;;;;;;;5118169;28;20215;-67
2022/12/25 15:40:21;;;;;;;2.17;1.87;;;;;;;;;;5117802;28;20558;-67
2022/12/25 15:42:49;;;;;;;3.77;1.77;;;;;;;;;;5117706;28;20383;-67
2022/12/25 15:45:20;;;;;;;2.53;1.87;;;;;;;;;;5118129;28;20236;-67
2022/12/25 15:47:48;;;;;;;2.00;1.80;;;;;;;;;;5118088;28;20205;-65
2022/12/25 15:50:16;;;;;;;4.60;1.83;;;;;;;;;;5117868;28;20215;-66
2022/12/25 15:52:44;;;;;;;2.57;1.70;;;;;;;;;;5117906;28;20225;-67
2022/12/25 15:55:14;;;;;;;5.13;1.90;;;;;;;;;;5117997;28;20205;-66
2022/12/25 15:57:43;;;;;;;2.30;2.10;;;;;;;;;;5117964;28;20664;-67
2022/12/25 16:00:15;;;;;;;2.40;2.20;;;;;;;;;;5116453;28;20289;-65
2022/12/25 16:02:43;;;;;;;2.80;2.10;;;;;;;;;;5121635;28;20220;-66
2022/12/25 16:05:11;;;;;;;1.90;1.80;;;;;;;;;;5121303;28;20201;-66
2022/12/25 16:07:40;;;;;;;4.97;2.03;;;;;;;;;;5121601;28;20627;-66
2022/12/25 16:10:13;;;;;;;2.33;2.00;;;;;;;;;;5121323;28;20664;-65
2022/12/25 16:12:42;;;;;;;3.10;2.30;;;;;;;;;;5121573;28;20217;-66
2022/12/25 16:15:11;;;;;;;3.10;2.20;;;;;;;;;;5121385;28;20257;-66
2022/12/25 16:17:39;;;;;;;2.43;2.17;;;;;;;;;;5121245;28;20201;-65
2022/12/25 16:20:07;;;;;;;2.93;2.17;;;;;;;;;;5120973;28;20204;-66
2022/12/25 16:22:39;;;;;;;2.77;2.13;;;;;;;;;;5120826;28;20679;-65
2022/12/25 16:25:12;;;;;;;4.80;2.30;;;;;;;;;;5121023;28;20561;-65
2022/12/25 16:27:44;;;;;;;2.37;2.00;;;;;;;;;;5121090;28;20207;-65
2022/12/25 16:30:13;;;;;;;2.63;1.90;;;;;;;;;;5121299;28;20631;-66
2022/12/25 16:32:42;;;;;;;4.17;2.50;;;;;;;;;;5121403;28;20263;-67
2022/12/25 16:35:12;;;;;;;7.50;2.30;;;;;;;;;;5120786;28;20258;-65
2022/12/25 16:37:40;;;;;;;4.73;2.20;;;;;;;;;;5121413;28;20244;-66
2022/12/25 16:40:09;;;;;;;3.30;2.20;;;;;;;;;;5120994;27;20672;-66